Time;durP1;ratioP1;P1;durP2;ratioP2;P2;SDS_P1;SDS_P2;PMS_P1;PMS_P2;Temp;Humidity;BMP_temperature;BMP_pressure;BME280_temperature;BME280_humidity;BME280_pressure;Samples;Min_cycle;Max_cycle;Signal;HPM_P1;HPM_P2
2022/10/23 00:00:18;;;;;;;3.97;1.93;;;13.00;99.90;;;;;;5054698;28;20292;-57
2022/10/23 00:02:51;;;;;;;4.90;1.97;;;12.80;99.90;;;;;;5054879;28;20219;-58
2022/10/23 00:05:19;;;;;;;4.90;2.40;;;12.70;99.90;;;;;;5053871;28;20244;-57
2022/10/23 00:07:48;;;;;;;6.20;2.00;;;12.60;99.90;;;;;;5054537;28;20212;-57
2022/10/23 00:10:17;;;;;;;4.00;2.07;;;12.50;99.90;;;;;;5053418;28;20210;-59
2022/10/23 00:12:44;;;;;;;3.33;1.90;;;12.50;99.90;;;;;;5033477;28;20209;-57
2022/10/23 00:15:11;;;;;;;4.47;2.30;;;12.50;99.90;;;;;;5035355;28;20561;-56
2022/10/23 00:17:38;;;;;;;4.73;1.77;;;12.50;99.90;;;;;;5035490;28;20630;-55
2022/10/23 00:20:07;;;;;;;3.37;2.63;;;12.60;99.90;;;;;;5035219;28;20206;-57
2022/10/23 00:22:34;;;;;;;3.17;2.17;;;12.60;99.90;;;;;;5035447;28;20206;-55
2022/10/23 00:25:01;;;;;;;5.13;2.27;;;12.40;99.90;;;;;;5035446;28;20583;-56
2022/10/23 00:27:29;;;;;;;8.47;2.10;;;12.30;99.90;;;;;;5036040;28;20214;-58
2022/10/23 00:29:56;;;;;;;3.80;2.03;;;12.20;99.90;;;;;;5036079;28;20205;-55
2022/10/23 00:32:23;;;;;;;6.10;1.90;;;12.10;99.90;;;;;;5035915;28;20210;-57
2022/10/23 00:34:50;;;;;;;7.70;2.13;;;12.10;99.90;;;;;;5036533;28;20249;-57
2022/10/23 00:37:16;;;;;;;5.00;2.07;;;12.10;99.90;;;;;;5036945;28;20210;-56
2022/10/23 00:39:43;;;;;;;5.50;2.00;;;12.10;99.90;;;;;;5036495;28;20206;-55
2022/10/23 00:42:13;;;;;;;5.77;2.30;;;12.10;99.90;;;;;;5036175;28;20210;-58
2022/10/23 00:45:11;;;;;;;5.40;2.10;;;12.30;99.90;;;;;;5036690;28;20230;-56
2022/10/23 00:47:38;;;;;;;4.50;1.80;;;12.40;99.90;;;;;;5036901;28;20242;-55
2022/10/23 00:50:06;;;;;;;3.87;1.90;;;12.50;99.90;;;;;;5037132;28;20706;-56
2022/10/23 00:52:34;;;;;;;3.83;2.00;;;12.50;99.90;;;;;;5036643;28;20230;-56
2022/10/23 00:55:02;;;;;;;3.37;2.00;;;12.50;99.90;;;;;;5036082;28;20221;-56
2022/10/23 00:57:29;;;;;;;5.27;2.10;;;12.30;99.90;;;;;;5036704;28;20206;-55
2022/10/23 00:59:56;;;;;;;6.63;2.33;;;12.30;99.90;;;;;;5037342;28;20215;-57
2022/10/23 01:02:25;;;;;;;7.60;1.70;;;12.30;99.90;;;;;;5036536;28;20213;-57
2022/10/23 01:04:51;;;;;;;6.03;2.10;;;12.40;99.90;;;;;;5036926;28;20234;-56
2022/10/23 01:07:26;;;;;;;6.00;2.57;;;12.50;99.90;;;;;;5036617;28;20217;-57
2022/10/23 01:09:59;;;;;;;5.87;2.23;;;12.60;99.90;;;;;;5036419;28;20256;-58
2022/10/23 01:12:32;;;;;;;5.03;2.50;;;12.60;99.90;;;;;;5035724;28;20203;-56
2022/10/23 01:15:07;;;;;;;5.63;2.17;;;12.60;99.90;;;;;;5035889;28;20269;-57
2022/10/23 01:17:38;;;;;;;5.00;2.17;;;12.60;99.90;;;;;;5036034;28;20202;-56
2022/10/23 01:20:34;;;;;;;5.70;2.40;;;12.60;99.90;;;;;;5035514;28;20206;-57
2022/10/23 01:23:24;;;;;;;8.43;2.70;;;12.60;99.90;;;;;;5010007;28;20216;-57
2022/10/23 01:26:06;;;;;;;3.73;1.90;;;12.60;99.90;;;;;;5035256;28;20230;-56
2022/10/23 01:28:39;;;;;;;2.83;1.60;;;12.60;99.90;;;;;;5035310;28;20206;-57
2022/10/23 01:31:11;;;;;;;5.23;2.17;;;12.60;99.90;;;;;;5035253;28;20654;-57
2022/10/23 01:33:41;;;;;;;3.33;2.43;;;12.60;99.90;;;;;;5034561;28;20300;-56
2022/10/23 01:36:12;;;;;;;5.07;2.80;;;12.50;99.90;;;;;;5034100;28;20805;-57
2022/10/23 01:38:44;;;;;;;5.67;3.23;;;12.50;99.90;;;;;;5034360;28;20249;-57
2022/10/23 01:41:16;;;;;;;5.70;3.10;;;12.50;99.90;;;;;;5033353;28;20206;-57
2022/10/23 01:43:49;;;;;;;10.43;3.40;;;12.40;99.90;;;;;;5034127;28;20202;-57
2022/10/23 01:46:17;;;;;;;3.83;2.30;;;12.40;99.90;;;;;;5067028;22;20234;-59
2022/10/23 01:48:50;;;;;;;6.60;2.77;;;12.40;99.90;;;;;;5051203;28;20209;-59
2022/10/23 01:51:18;;;;;;;6.40;2.97;;;12.40;99.90;;;;;;5051888;28;20215;-60
2022/10/23 01:53:47;;;;;;;5.13;2.80;;;12.40;99.90;;;;;;5053092;28;20229;-60
2022/10/23 01:56:19;;;;;;;4.03;2.00;;;12.40;99.90;;;;;;5052603;28;20229;-59
2022/10/23 01:58:50;;;;;;;6.90;1.80;;;12.40;99.90;;;;;;5052710;28;20221;-60
2022/10/23 02:01:19;;;;;;;7.83;1.80;;;12.20;99.90;;;;;;5052009;28;20209;-60
2022/10/23 02:03:47;;;;;;;8.50;2.00;;;12.10;99.90;;;;;;5052933;28;20210;-60
2022/10/23 02:06:14;;;;;;;5.20;1.90;;;12.00;99.90;;;;;;5052363;28;20225;-59
2022/10/23 02:08:41;;;;;;;5.47;1.70;;;12.00;99.90;;;;;;5052554;28;20205;-60
2022/10/23 02:11:10;;;;;;;4.13;1.70;;;12.00;99.90;;;;;;5052494;28;20205;-60
2022/10/23 02:13:44;;;;;;;2.73;1.77;;;12.10;99.90;;;;;;5052494;28;20258;-59
2022/10/23 02:16:21;;;;;;;5.43;1.90;;;12.20;99.90;;;;;;5052189;28;20232;-59
2022/10/23 02:18:55;;;;;;;9.27;2.57;;;12.30;99.90;;;;;;5052382;28;20209;-60
2022/10/23 02:21:31;;;;;;;4.47;1.80;;;12.40;99.90;;;;;;5052102;28;20233;-61
2022/10/23 02:24:03;;;;;;;4.70;2.07;;;12.40;99.90;;;;;;5052333;28;20215;-61
2022/10/23 02:26:38;;;;;;;4.37;1.63;;;12.30;99.90;;;;;;5052229;28;20233;-61
2022/10/23 02:29:09;;;;;;;3.30;1.70;;;12.30;99.90;;;;;;5052153;28;20695;-59
2022/10/23 02:31:37;;;;;;;4.70;1.90;;;12.40;99.90;;;;;;5051804;28;20216;-59
2022/10/23 02:34:04;;;;;;;7.47;1.60;;;12.30;99.90;;;;;;5052250;28;20232;-59
2022/10/23 02:36:31;;;;;;;4.57;1.70;;;12.30;99.90;;;;;;5053931;28;20770;-61
2022/10/23 02:38:58;;;;;;;5.13;1.93;;;12.30;99.90;;;;;;5054298;28;20205;-62
2022/10/23 02:41:33;;;;;;;4.33;1.50;;;12.20;99.90;;;;;;5052621;28;20205;-60
2022/10/23 02:44:24;;;;;;;3.27;1.50;;;12.00;99.90;;;;;;5052099;28;20205;-59
2022/10/23 02:47:04;;;;;;;8.03;2.50;;;11.90;99.90;;;;;;5051858;28;20213;-59
2022/10/23 02:49:38;;;;;;;4.30;1.40;;;11.90;99.90;;;;;;5051986;28;20556;-60
2022/10/23 02:52:12;;;;;;;11.77;1.80;;;11.80;99.90;;;;;;5051070;28;20680;-60
2022/10/23 02:55:02;;;;;;;10.50;1.97;;;11.70;99.90;;;;;;5051993;28;20251;-60
2022/10/23 02:57:32;;;;;;;6.13;1.80;;;11.70;99.90;;;;;;5051882;28;20642;-60
2022/10/23 03:00:04;;;;;;;4.93;1.50;;;11.70;99.90;;;;;;5051789;28;20212;-61
2022/10/23 03:02:37;;;;;;;5.90;1.70;;;11.70;99.90;;;;;;5051126;28;20201;-61
2022/10/23 03:05:06;;;;;;;4.73;1.97;;;11.80;99.90;;;;;;5051687;28;20617;-62
2022/10/23 03:07:34;;;;;;;3.57;1.73;;;11.80;99.90;;;;;;5051643;28;20720;-61
2022/10/23 03:10:01;;;;;;;4.00;2.17;;;11.90;99.90;;;;;;5051892;28;20288;-60
2022/10/23 03:12:27;;;;;;;4.90;1.70;;;12.10;99.90;;;;;;5050910;28;20580;-60
2022/10/23 03:14:54;;;;;;;3.30;1.70;;;12.10;99.90;;;;;;5051942;28;20225;-60
2022/10/23 03:17:21;;;;;;;6.00;1.60;;;12.20;99.90;;;;;;5052275;28;20212;-60
2022/10/23 03:19:49;;;;;;;5.00;1.60;;;12.20;99.90;;;;;;5055866;28;20213;-60
2022/10/23 03:22:15;;;;;;;4.40;1.90;;;12.40;99.90;;;;;;5054955;28;20212;-60
2022/10/23 03:24:42;;;;;;;2.83;1.50;;;12.50;99.90;;;;;;5055398;28;20605;-59
2022/10/23 03:27:10;;;;;;;2.67;1.47;;;12.60;99.90;;;;;;5055370;28;20279;-60
2022/10/23 03:29:36;;;;;;;3.83;1.57;;;12.70;99.90;;;;;;5055661;28;20251;-60
2022/10/23 03:32:03;;;;;;;2.23;1.40;;;12.80;99.90;;;;;;5055018;28;20209;-60
2022/10/23 03:34:30;;;;;;;3.40;1.70;;;12.80;99.90;;;;;;5055383;28;20198;-60
2022/10/23 03:36:58;;;;;;;3.07;1.50;;;12.80;99.90;;;;;;5055379;28;20209;-60
2022/10/23 03:39:25;;;;;;;4.53;1.63;;;12.90;99.90;;;;;;5055514;28;20213;-60
2022/10/23 03:41:52;;;;;;;4.03;1.87;;;12.80;99.90;;;;;;5054784;28;20201;-60
2022/10/23 03:44:19;;;;;;;4.43;1.57;;;12.80;99.90;;;;;;5055453;28;20205;-60
2022/10/23 03:46:45;;;;;;;4.63;1.50;;;12.80;99.90;;;;;;5055044;28;20214;-60
2022/10/23 03:49:12;;;;;;;4.07;1.50;;;12.80;99.90;;;;;;5055240;28;20205;-60
2022/10/23 03:51:40;;;;;;;7.67;6.23;;;12.80;99.90;;;;;;5054449;28;20201;-59
2022/10/23 03:54:08;;;;;;;4.03;2.90;;;12.80;99.90;;;;;;5054941;28;20208;-60
2022/10/23 03:56:35;;;;;;;4.73;1.67;;;12.70;99.90;;;;;;5054690;28;20241;-59
2022/10/23 03:59:02;;;;;;;6.30;1.87;;;12.70;99.90;;;;;;5055329;28;20692;-60
2022/10/23 04:01:28;;;;;;;2.50;1.60;;;12.70;99.90;;;;;;5055608;28;20209;-61
2022/10/23 04:03:55;;;;;;;2.63;1.40;;;12.70;99.90;;;;;;5055648;28;20201;-60
2022/10/23 04:06:22;;;;;;;3.23;1.70;;;12.60;99.90;;;;;;5055650;28;20237;-62
2022/10/23 04:08:49;;;;;;;1.67;1.17;;;12.70;99.90;;;;;;5055728;28;20647;-61
2022/10/23 04:11:17;;;;;;;3.63;1.40;;;12.60;99.90;;;;;;5055108;28;20213;-61
2022/10/23 04:13:43;;;;;;;3.73;1.20;;;12.60;99.90;;;;;;5055157;28;20210;-60
2022/10/23 04:16:10;;;;;;;9.60;2.17;;;12.60;99.90;;;;;;5054549;28;20226;-61
2022/10/23 04:18:37;;;;;;;2.93;1.30;;;12.50;99.90;;;;;;5054710;28;20210;-61
2022/10/23 04:21:03;;;;;;;6.20;1.47;;;12.50;99.90;;;;;;5054539;28;20209;-61
2022/10/23 04:23:30;;;;;;;2.37;1.40;;;12.50;99.90;;;;;;5053745;28;20210;-61
2022/10/23 04:25:57;;;;;;;5.53;1.70;;;12.40;99.90;;;;;;5054689;28;20616;-61
2022/10/23 04:28:26;;;;;;;5.87;1.47;;;12.50;99.90;;;;;;5053707;28;20209;-60
2022/10/23 04:30:53;;;;;;;12.07;7.63;;;12.50;99.90;;;;;;5053818;28;20205;-61
2022/10/23 04:33:19;;;;;;;4.03;1.57;;;12.50;99.90;;;;;;5053667;28;20213;-61
2022/10/23 04:35:46;;;;;;;10.83;5.93;;;12.60;99.90;;;;;;5053997;28;20236;-60
2022/10/23 04:38:13;;;;;;;6.83;4.23;;;12.60;99.90;;;;;;5053944;28;20682;-61
2022/10/23 04:40:39;;;;;;;7.17;4.73;;;12.60;99.90;;;;;;5054309;28;20213;-61
2022/10/23 04:43:06;;;;;;;8.13;4.00;;;12.60;99.90;;;;;;5053642;28;20205;-60
2022/10/23 04:45:35;;;;;;;12.13;6.43;;;12.50;99.90;;;;;;5053810;28;20233;-61
2022/10/23 04:48:01;;;;;;;8.47;5.17;;;12.50;99.90;;;;;;5053718;28;20584;-61
2022/10/23 04:50:28;;;;;;;5.73;2.80;;;12.50;99.90;;;;;;5053851;28;20202;-61
2022/10/23 04:52:55;;;;;;;6.93;2.10;;;12.50;99.90;;;;;;5053224;28;20693;-61
2022/10/23 04:55:24;;;;;;;7.27;1.70;;;12.50;99.90;;;;;;5053844;28;20228;-61
2022/10/23 04:57:51;;;;;;;4.83;2.10;;;12.50;99.90;;;;;;5053861;28;20227;-60
2022/10/23 05:00:18;;;;;;;5.30;1.60;;;12.50;99.90;;;;;;5053782;28;20240;-61
2022/10/23 05:02:46;;;;;;;3.53;1.70;;;12.50;99.90;;;;;;5053010;28;20733;-61
2022/10/23 05:05:12;;;;;;;4.40;1.57;;;12.60;99.90;;;;;;5053498;28;20736;-61
2022/10/23 05:07:40;;;;;;;3.73;1.80;;;12.60;99.90;;;;;;5053740;28;20212;-60
2022/10/23 05:10:07;;;;;;;6.47;1.40;;;12.60;99.90;;;;;;5053736;28;20210;-61
2022/10/23 05:12:34;;;;;;;7.13;1.90;;;12.50;99.90;;;;;;5052998;28;20213;-61
2022/10/23 05:15:00;;;;;;;3.43;1.70;;;12.60;99.90;;;;;;5053490;28;20230;-61
2022/10/23 05:17:30;;;;;;;7.47;5.07;;;12.60;99.90;;;;;;5053615;28;20213;-61
2022/10/23 05:20:01;;;;;;;7.40;3.80;;;12.60;99.90;;;;;;5053443;28;20209;-61
2022/10/23 05:22:32;;;;;;;9.37;6.17;;;12.60;99.90;;;;;;5053085;28;20209;-61
2022/10/23 05:25:00;;;;;;;5.43;2.10;;;12.60;99.90;;;;;;5053014;28;20736;-61
2022/10/23 05:27:27;;;;;;;5.37;1.60;;;12.60;99.90;;;;;;5053212;28;20206;-61
2022/10/23 05:29:54;;;;;;;5.67;3.90;;;12.60;99.90;;;;;;5053175;28;20210;-61
2022/10/23 05:32:22;;;;;;;8.13;4.10;;;12.60;99.90;;;;;;5052487;28;20213;-61
2022/10/23 05:34:49;;;;;;;7.50;3.10;;;12.60;99.90;;;;;;5053164;28;20229;-61
2022/10/23 05:37:17;;;;;;;5.33;1.97;;;12.60;99.90;;;;;;5053229;28;20205;-61
2022/10/23 05:39:44;;;;;;;9.93;4.97;;;12.70;99.90;;;;;;5053003;28;20205;-61
2022/10/23 05:42:11;;;;;;;10.73;3.93;;;12.70;99.90;;;;;;5052537;28;20215;-61
2022/10/23 05:44:38;;;;;;;2.60;1.90;;;12.70;99.90;;;;;;5052541;28;20210;-60
2022/10/23 05:47:05;;;;;;;7.43;1.90;;;12.70;99.90;;;;;;5052958;28;20404;-62
2022/10/23 05:49:31;;;;;;;4.10;1.60;;;12.70;99.90;;;;;;5052921;28;20221;-61
2022/10/23 05:51:58;;;;;;;2.00;1.60;;;12.80;99.90;;;;;;5052420;28;20580;-60
2022/10/23 05:54:26;;;;;;;13.33;6.60;;;12.80;99.90;;;;;;5052695;28;20220;-60
2022/10/23 05:56:53;;;;;;;13.87;2.47;;;12.90;99.90;;;;;;5052657;28;20209;-61
2022/10/23 05:59:20;;;;;;;10.43;5.30;;;12.90;99.90;;;;;;5052706;28;20452;-60
2022/10/23 06:01:47;;;;;;;3.77;1.93;;;12.90;99.90;;;;;;5052444;28;20209;-60
2022/10/23 06:04:13;;;;;;;9.00;3.87;;;12.90;99.90;;;;;;5052937;28;20209;-60
2022/10/23 06:06:40;;;;;;;7.20;3.00;;;12.90;99.90;;;;;;5052684;28;20446;-61
2022/10/23 06:09:07;;;;;;;6.57;4.40;;;12.90;99.90;;;;;;5052501;28;20280;-61
2022/10/23 06:11:35;;;;;;;3.03;1.77;;;12.80;99.90;;;;;;5052885;28;20202;-63
2022/10/23 06:14:01;;;;;;;3.83;1.60;;;12.90;99.90;;;;;;5053566;28;20577;-63
2022/10/23 06:16:28;;;;;;;4.20;1.83;;;12.80;99.90;;;;;;5053941;28;20232;-63
2022/10/23 06:18:56;;;;;;;3.10;1.50;;;12.80;99.90;;;;;;5053669;28;20564;-63
2022/10/23 06:21:23;;;;;;;7.87;2.03;;;12.80;99.90;;;;;;5052793;28;20264;-61
2022/10/23 06:23:50;;;;;;;5.70;1.70;;;12.90;99.90;;;;;;5052440;28;20205;-63
2022/10/23 06:26:18;;;;;;;7.40;2.13;;;12.90;99.90;;;;;;5052517;28;20233;-63
2022/10/23 06:28:46;;;;;;;4.37;2.30;;;13.00;99.90;;;;;;5052502;28;20488;-62
2022/10/23 06:31:14;;;;;;;8.20;3.27;;;13.20;99.90;;;;;;5052706;28;20208;-62
2022/10/23 06:33:42;;;;;;;8.47;2.30;;;13.30;99.90;;;;;;5051751;28;20212;-63
2022/10/23 06:36:09;;;;;;;4.97;1.80;;;13.40;99.90;;;;;;5052133;28;20229;-62
2022/10/23 06:38:39;;;;;;;5.70;2.10;;;13.60;99.90;;;;;;5052858;28;20255;-64
2022/10/23 06:41:08;;;;;;;3.83;1.80;;;13.70;99.90;;;;;;5052094;28;20267;-62
2022/10/23 06:43:34;;;;;;;4.60;1.60;;;13.80;99.90;;;;;;5052550;28;20263;-64
2022/10/23 06:46:03;;;;;;;3.33;2.17;;;13.90;99.90;;;;;;5053043;28;20234;-63
2022/10/23 06:48:30;;;;;;;12.57;5.27;;;14.10;99.90;;;;;;5053405;28;20209;-62
2022/10/23 06:50:57;;;;;;;6.77;2.20;;;14.20;99.90;;;;;;5052946;28;20235;-63
2022/10/23 06:53:24;;;;;;;14.27;8.10;;;14.30;99.90;;;;;;5051326;28;20212;-63
2022/10/23 06:55:52;;;;;;;6.07;2.33;;;14.40;99.90;;;;;;5053214;28;20218;-65
2022/10/23 06:58:18;;;;;;;3.20;2.00;;;14.40;99.90;;;;;;5053446;28;20206;-62
2022/10/23 07:00:45;;;;;;;6.33;2.50;;;14.50;99.90;;;;;;5052728;28;20206;-66
2022/10/23 07:03:13;;;;;;;5.90;2.73;;;14.70;99.90;;;;;;5052177;28;20707;-64
2022/10/23 07:05:43;;;;;;;11.93;5.60;;;14.70;99.90;;;;;;5052360;28;20225;-64
2022/10/23 07:08:10;;;;;;;6.83;3.03;;;14.70;99.90;;;;;;5052828;28;20205;-63
2022/10/23 07:10:37;;;;;;;5.70;2.37;;;14.80;99.90;;;;;;5052549;28;20296;-65
2022/10/23 07:13:04;;;;;;;5.13;3.80;;;14.90;99.90;;;;;;5051913;28;20300;-63
2022/10/23 07:15:31;;;;;;;3.47;2.27;;;14.90;99.90;;;;;;5052233;28;20280;-63
2022/10/23 07:17:57;;;;;;;5.93;2.37;;;15.00;99.90;;;;;;5052264;28;20217;-63
2022/10/23 07:20:26;;;;;;;17.67;8.40;;;15.20;99.90;;;;;;5052014;28;20209;-63
2022/10/23 07:22:53;;;;;;;14.73;8.17;;;15.30;99.90;;;;;;5051655;28;20210;-65
2022/10/23 07:25:20;;;;;;;10.77;5.13;;;15.50;99.90;;;;;;5052470;28;20221;-62
2022/10/23 07:27:47;;;;;;;9.00;3.50;;;15.60;99.90;;;;;;5051837;28;20206;-63
2022/10/23 07:30:14;;;;;;;6.63;2.63;;;15.70;99.90;;;;;;5051814;28;20217;-64
2022/10/23 07:32:42;;;;;;;7.95;3.25;;;15.90;99.90;;;;;;5050986;28;20594;-63
2022/10/23 07:35:10;;;;;;;3.55;2.60;;;16.00;99.90;;;;;;5051364;28;20226;-62
2022/10/23 07:37:38;;;;;;;3.80;2.07;;;16.00;99.90;;;;;;5051550;28;20213;-61
2022/10/23 07:40:05;;;;;;;5.07;2.03;;;16.10;99.90;;;;;;5051522;28;20213;-62
2022/10/23 07:42:32;;;;;;;3.80;1.90;;;16.10;99.90;;;;;;5050855;28;20201;-63
2022/10/23 07:44:59;;;;;;;3.13;1.20;;;16.10;99.90;;;;;;5051743;28;20226;-63
2022/10/23 07:47:26;;;;;;;3.20;1.70;;;16.10;99.90;;;;;;5051531;28;20728;-62
2022/10/23 07:49:52;;;;;;;3.50;1.73;;;16.00;99.90;;;;;;5051334;28;20210;-62
2022/10/23 07:52:19;;;;;;;2.50;1.60;;;16.10;99.90;;;;;;5051206;28;20206;-62
2022/10/23 07:54:50;;;;;;;4.22;1.60;;;16.30;99.90;;;;;;5051397;28;20253;-64
2022/10/23 07:57:17;;;;;;;4.50;1.60;;;16.50;99.90;;;;;;5051273;28;20206;-62
2022/10/23 07:59:44;;;;;;;3.85;1.60;;;16.60;99.90;;;;;;5051308;28;20579;-62
2022/10/23 08:02:11;;;;;;;4.13;1.40;;;16.70;99.90;;;;;;5050971;28;20206;-63
2022/10/23 08:04:38;;;;;;;3.70;1.77;;;16.90;99.90;;;;;;5053942;28;20241;-62
2022/10/23 08:07:05;;;;;;;3.25;1.38;;;17.10;99.90;;;;;;5054876;28;20225;-63
2022/10/23 08:09:33;;;;;;;6.55;2.03;;;17.30;99.90;;;;;;5054971;28;20213;-63
2022/10/23 08:12:01;;;;;;;5.45;1.48;;;17.30;99.90;;;;;;5054092;28;20669;-64
2022/10/23 08:14:28;;;;;;;4.53;1.63;;;17.10;99.90;;;;;;5054646;28;20209;-63
2022/10/23 08:16:55;;;;;;;33.33;19.63;;;16.80;99.90;;;;;;5055256;28;20202;-63
2022/10/23 08:19:22;;;;;;;3.45;1.80;;;16.60;99.90;;;;;;5055737;28;20289;-62
2022/10/23 08:21:48;;;;;;;1.85;1.33;;;16.70;99.90;;;;;;5054133;28;20216;-63
2022/10/23 08:24:15;;;;;;;3.17;1.58;;;16.80;99.90;;;;;;5054768;28;20205;-63
2022/10/23 08:26:42;;;;;;;5.75;1.40;;;17.00;99.90;;;;;;5054631;28;20225;-61
2022/10/23 08:29:10;;;;;;;5.00;1.30;;;17.20;99.90;;;;;;5054868;28;20210;-67
2022/10/23 08:31:37;;;;;;;6.95;1.15;;;17.30;99.90;;;;;;5054444;28;20216;-68
2022/10/23 08:34:03;;;;;;;7.05;5.28;;;17.50;99.90;;;;;;5054099;28;20212;-68
2022/10/23 08:36:30;;;;;;;14.75;12.15;;;17.70;99.90;;;;;;5054373;28;20222;-66
2022/10/23 08:38:58;;;;;;;7.93;3.28;;;18.00;99.90;;;;;;5054208;28;20210;-67
2022/10/23 08:41:29;;;;;;;2.35;1.35;;;18.20;99.90;;;;;;5054593;28;20216;-66
2022/10/23 08:44:07;;;;;;;2.53;1.42;;;18.30;99.90;;;;;;5053764;28;20696;-68
2022/10/23 08:46:40;;;;;;;2.47;1.48;;;18.40;99.90;;;;;;5054170;28;20229;-67
2022/10/23 08:49:20;;;;;;;5.05;1.30;;;18.60;99.90;;;;;;5054019;28;20209;-67
2022/10/23 08:51:49;;;;;;;3.80;0.80;;;18.70;99.90;;;;;;5054190;28;20209;-69
2022/10/23 08:54:20;;;;;;;2.17;1.23;;;18.80;99.90;;;;;;5053789;28;20220;-67
2022/10/23 08:56:52;;;;;;;1.00;0.90;;;18.80;99.90;;;;;;5054089;28;20229;-67
2022/10/23 08:59:26;;;;;;;1.42;1.00;;;18.80;99.90;;;;;;5054041;28;20205;-67
2022/10/23 09:02:00;;;;;;;3.70;1.00;;;18.90;99.90;;;;;;5053486;28;20661;-67
2022/10/23 09:04:27;;;;;;;4.85;0.88;;;18.90;99.90;;;;;;5054229;28;20213;-67
2022/10/23 09:07:04;;;;;;;3.47;0.80;;;19.10;99.90;;;;;;5054351;28;20233;-68
2022/10/23 09:09:55;;;;;;;9.70;1.13;;;19.10;99.90;;;;;;5054311;28;20209;-69
2022/10/23 09:12:24;;;;;;;2.25;0.90;;;19.10;99.90;;;;;;5052928;28;20202;-67
2022/10/23 09:15:02;;;;;;;2.78;0.77;;;19.10;99.90;;;;;;5052985;28;20232;-67
2022/10/23 09:17:32;;;;;;;3.22;1.10;;;19.10;99.90;;;;;;5053286;28;20275;-66
2022/10/23 09:20:12;;;;;;;5.68;1.27;;;19.20;99.90;;;;;;5053556;28;20205;-68
2022/10/23 09:22:40;;;;;;;2.08;1.00;;;19.10;99.90;;;;;;5052517;28;20201;-64
2022/10/23 09:25:09;;;;;;;1.02;0.70;;;19.00;99.90;;;;;;5053406;28;20244;-66
2022/10/23 09:27:36;;;;;;;0.98;0.88;;;19.20;99.90;;;;;;5052854;28;20256;-65
2022/10/23 09:30:04;;;;;;;3.08;0.98;;;19.30;99.90;;;;;;5053015;28;20729;-65
2022/10/23 09:32:36;;;;;;;1.80;0.80;;;19.40;99.90;;;;;;5052413;28;20213;-65
2022/10/23 09:35:05;;;;;;;2.00;1.23;;;19.60;99.90;;;;;;5052982;28;20229;-64
2022/10/23 09:37:34;;;;;;;1.20;0.77;;;19.70;99.90;;;;;;5053077;28;20208;-66
2022/10/23 09:40:15;;;;;;;0.85;0.70;;;19.80;99.90;;;;;;5052849;28;20233;-65
2022/10/23 09:42:51;;;;;;;2.90;0.70;;;20.00;99.90;;;;;;5052389;28;20213;-64
2022/10/23 09:45:24;;;;;;;1.00;0.70;;;20.30;99.90;;;;;;5052657;28;20233;-66
2022/10/23 09:48:09;;;;;;;3.90;0.80;;;20.40;99.90;;;;;;5052434;28;20245;-64
2022/10/23 09:50:36;;;;;;;2.42;0.90;;;20.20;99.90;;;;;;5052549;28;20205;-63
2022/10/23 09:53:03;;;;;;;1.45;0.80;;;20.30;99.90;;;;;;5052119;28;20216;-63
2022/10/23 09:55:30;;;;;;;3.03;0.70;;;20.40;99.90;;;;;;5052585;28;20230;-62
2022/10/23 09:57:57;;;;;;;1.40;0.88;;;20.50;99.90;;;;;;5058549;28;20240;-64
2022/10/23 10:00:25;;;;;;;1.00;0.80;;;20.70;99.90;;;;;;5057390;28;20210;-63
2022/10/23 10:02:59;;;;;;;2.42;0.75;;;20.80;99.90;;;;;;5052438;28;20212;-63
2022/10/23 10:05:28;;;;;;;1.60;0.90;;;20.90;99.90;;;;;;5052496;28;20226;-65
2022/10/23 10:07:59;;;;;;;2.20;0.60;;;21.00;99.90;;;;;;5052408;28;20225;-62
2022/10/23 10:10:32;;;;;;;3.33;1.05;;;21.00;99.90;;;;;;5052462;28;20275;-62
2022/10/23 10:13:03;;;;;;;2.20;0.73;;;21.20;99.90;;;;;;5052024;28;20209;-63
2022/10/23 10:15:37;;;;;;;3.33;0.90;;;21.40;99.90;;;;;;5052179;28;20232;-63
2022/10/23 10:18:18;;;;;;;1.15;0.93;;;21.40;99.90;;;;;;5052311;28;20208;-63
2022/10/23 10:21:04;;;;;;;2.40;0.70;;;21.50;99.90;;;;;;5052347;28;20299;-62
2022/10/23 10:23:37;;;;;;;3.35;1.02;;;21.70;99.90;;;;;;5024473;28;20218;-71
2022/10/23 10:26:17;;;;;;;1.75;0.73;;;21.90;99.90;;;;;;5010776;28;20231;-63
2022/10/23 10:29:02;;;;;;;2.63;0.80;;;21.90;99.90;;;;;;5026568;28;20226;-67
2022/10/23 10:31:37;;;;;;;1.08;0.70;;;22.10;99.90;;;;;;5029074;28;20221;-68
2022/10/23 10:34:13;;;;;;;3.22;1.25;;;22.30;99.90;;;;;;5030841;28;20201;-67
2022/10/23 10:36:49;;;;;;;2.72;0.80;;;22.50;99.90;;;;;;5048076;28;20232;-68
2022/10/23 10:39:27;;;;;;;2.42;0.98;;;22.70;99.90;;;;;;5050506;28;20204;-66
2022/10/23 10:42:09;;;;;;;3.35;0.63;;;22.90;99.90;;;;;;5049650;28;20205;-66
2022/10/23 10:44:47;;;;;;;2.30;1.55;;;23.00;99.90;;;;;;5048518;28;20696;-66
2022/10/23 10:47:21;;;;;;;3.50;1.38;;;23.10;99.90;;;;;;5051009;28;20552;-66
2022/10/23 10:49:59;;;;;;;1.48;0.77;;;23.40;99.90;;;;;;5050633;28;20255;-66
2022/10/23 10:52:38;;;;;;;2.70;0.70;;;23.70;99.90;;;;;;5048415;28;20612;-68
2022/10/23 10:55:18;;;;;;;4.40;1.05;;;24.00;99.90;;;;;;5050782;28;20229;-65
2022/10/23 10:57:50;;;;;;;1.92;1.00;;;24.20;99.90;;;;;;5049102;28;20202;-66
2022/10/23 11:00:19;;;;;;;4.30;0.82;;;24.30;99.90;;;;;;5049442;28;20692;-63
2022/10/23 11:02:49;;;;;;;0.98;0.70;;;24.40;99.90;;;;;;5049484;28;20205;-63
2022/10/23 11:05:25;;;;;;;1.70;0.80;;;24.20;99.90;;;;;;5049529;28;20435;-63
2022/10/23 11:07:58;;;;;;;3.00;0.80;;;24.10;99.90;;;;;;5048917;28;20971;-65
2022/10/23 11:10:26;;;;;;;1.27;0.60;;;24.00;99.90;;;;;;5048834;28;20230;-65
2022/10/23 11:12:53;;;;;;;1.90;0.70;;;24.10;99.90;;;;;;5049869;28;20205;-64
2022/10/23 11:15:24;;;;;;;3.70;2.00;;;24.10;99.90;;;;;;5050073;28;20229;-65
2022/10/23 11:17:55;;;;;;;0.82;0.73;;;24.20;99.90;;;;;;5050477;28;20205;-64
2022/10/23 11:20:38;;;;;;;2.08;0.82;;;24.30;99.90;;;;;;5051120;28;20210;-63
2022/10/23 11:23:18;;;;;;;2.38;0.60;;;24.60;99.90;;;;;;5049780;28;20244;-65
2022/10/23 11:26:05;;;;;;;1.38;0.70;;;24.80;99.90;;;;;;5050274;28;20650;-64
2022/10/23 11:28:51;;;;;;;3.78;0.70;;;25.00;99.90;;;;;;5050030;28;20231;-63
2022/10/23 11:31:28;;;;;;;0.93;0.70;;;25.10;99.90;;;;;;5050250;28;20866;-65
2022/10/23 11:34:32;;;;;;;2.40;0.80;;;25.10;99.90;;;;;;5049245;28;20206;-64
2022/10/23 11:37:02;;;;;;;2.45;0.70;;;25.10;99.90;;;;;;4988145;28;20653;-65
2022/10/23 11:39:31;;;;;;;1.35;0.80;;;25.00;99.90;;;;;;5038681;28;20241;-64
2022/10/23 11:42:11;;;;;;;4.97;1.17;;;25.00;99.90;;;;;;5054181;28;20212;-64
2022/10/23 11:44:41;;;;;;;7.85;4.28;;;25.00;99.90;;;;;;5053455;28;20224;-64
2022/10/23 11:47:28;;;;;;;6.35;2.25;;;25.10;99.90;;;;;;5053841;28;20233;-64
2022/10/23 11:50:16;;;;;;;4.97;2.60;;;25.10;99.90;;;;;;5053911;28;20559;-65
2022/10/23 11:53:00;;;;;;;2.67;0.80;;;25.20;99.90;;;;;;5053294;28;20658;-64
2022/10/23 11:55:28;;;;;;;0.98;0.88;;;25.40;99.90;;;;;;5053522;28;20222;-64
2022/10/23 11:58:22;;;;;;;1.20;0.85;;;25.40;99.90;;;;;;5053339;28;20220;-63
2022/10/23 12:00:57;;;;;;;2.08;0.70;;;25.50;99.90;;;;;;5053562;28;20201;-64
2022/10/23 12:03:29;;;;;;;1.25;0.90;;;25.40;99.90;;;;;;5053061;28;20209;-64
2022/10/23 12:06:03;;;;;;;2.58;1.05;;;25.40;99.90;;;;;;5053740;28;20607;-63
2022/10/23 12:08:35;;;;;;;3.97;1.38;;;25.50;99.90;;;;;;5053500;28;20831;-64
2022/10/23 12:11:01;;;;;;;1.80;1.40;;;25.40;99.90;;;;;;5053574;28;20708;-65
2022/10/23 12:13:32;;;;;;;4.07;2.28;;;25.30;99.90;;;;;;5053720;28;20745;-64
2022/10/23 12:15:59;;;;;;;5.57;2.20;;;25.20;99.90;;;;;;5053691;28;20320;-65
2022/10/23 12:18:26;;;;;;;2.67;1.90;;;25.30;99.90;;;;;;5053396;28;20206;-66
2022/10/23 12:20:57;;;;;;;2.70;1.42;;;25.40;99.90;;;;;;5052902;28;20220;-64
2022/10/23 12:23:38;;;;;;;5.35;1.52;;;25.40;99.90;;;;;;5052886;28;20221;-65
2022/10/23 12:26:19;;;;;;;6.15;3.45;;;25.40;99.90;;;;;;5053226;28;20244;-64
2022/10/23 12:28:56;;;;;;;2.08;1.23;;;25.50;99.90;;;;;;5053389;28;20244;-65
2022/10/23 12:31:34;;;;;;;5.95;1.02;;;25.50;99.90;;;;;;5053330;28;20205;-63
2022/10/23 12:34:13;;;;;;;1.02;0.93;;;25.50;99.90;;;;;;5052067;28;20209;-63
2022/10/23 12:36:58;;;;;;;1.80;1.25;;;25.50;99.90;;;;;;5053381;28;20229;-64
2022/10/23 12:39:31;;;;;;;9.77;6.68;;;25.50;99.90;;;;;;5052895;28;20268;-64
2022/10/23 12:41:58;;;;;;;2.58;1.30;;;25.40;99.90;;;;;;5052492;28;20696;-64
2022/10/23 12:44:26;;;;;;;6.65;1.90;;;25.40;99.90;;;;;;5051750;28;20202;-64
2022/10/23 12:46:57;;;;;;;6.75;1.90;;;25.40;99.90;;;;;;5052469;28;20228;-64
2022/10/23 12:49:25;;;;;;;2.80;1.88;;;25.40;99.90;;;;;;5052071;28;20229;-64
2022/10/23 12:51:57;;;;;;;6.07;2.00;;;25.40;99.90;;;;;;5051929;28;20233;-70
2022/10/23 12:54:23;;;;;;;3.83;1.75;;;25.50;99.90;;;;;;5052227;28;20236;-64
2022/10/23 12:56:52;;;;;;;3.50;1.45;;;25.60;99.90;;;;;;5052602;28;20699;-63
2022/10/23 12:59:22;;;;;;;5.20;1.02;;;25.60;99.90;;;;;;5052308;28;20279;-63
2022/10/23 13:01:49;;;;;;;2.97;1.15;;;25.60;99.90;;;;;;5052473;28;20566;-62